Latest Weather Observations for Kununurra Airport

IDD60801

Issued at 8:05 am CST Saturday 2 August 2014 (issued every 30 minutes, with the page automatically refreshed every 10 minutes)

About weather observations | Map of weather stations | Latest weather observations for NT | Other Formats
Station Details ID: 002056 Name: KUNUNURRA AERO Lat: -15.78 Lon: 128.71 Height: 44.0 m
Data from the previous 72 hours. | See also: Recent months at Kununurra Airport
Date/Time
CST
Temp
°C
App
Temp
°C
Dew
Point
Rel
Hum
%
Delta-T
°C
Wind Press
QNH
hPa
Press
MSL
hPa
Rain
since 9 am
mm
Dir
 
Spd
km/h
Gust
km/h
Spd
kts
Gust
kts
02/08:00am 24.8 24.3 9.2 37 8.5 SE 2 7 1 4 1014.9 - 0.0
02/07:30am 21.3 22.0 12.3 56 5.1 SSW 0 0 0 0 1014.7 1014.5 0.0
02/07:00am 22.3 20.8 9.3 43 7.0 S 7 13 4 7 1014.3 - 0.0
02/06:30am 21.2 21.6 13.8 62 4.3 S 4 7 2 4 1014.1 - 0.0
02/06:00am 21.3 21.4 15.4 69 3.5 S 9 11 5 6 1013.9 - 0.0
02/05:30am 21.3 22.4 15.6 70 3.4 S 4 6 2 3 1013.8 - 0.0
02/05:00am 20.9 22.5 15.0 69 3.5 CALM 0 0 0 0 1013.8 - 0.0
02/04:30am 21.6 23.4 15.6 68 3.6 CALM 0 0 0 0 1013.6 1013.4 0.0
02/04:00am 22.3 24.3 16.0 67 3.8 CALM 0 0 0 0 1013.5 - 0.0
02/03:30am 22.1 24.1 16.1 69 3.6 E 0 0 0 0 1013.7 - 0.0
02/03:00am 22.7 24.3 15.0 61 4.6 CALM 0 0 0 0 1013.8 - 0.0
02/02:30am 22.2 24.2 15.9 67 3.8 CALM 0 0 0 0 1013.9 - 0.0
02/02:00am 23.0 24.2 13.7 55 5.4 CALM 0 0 0 0 1014.1 - 0.0
02/01:30am 23.1 24.3 13.9 56 5.4 S 0 0 0 0 1014.2 1014.0 0.0
02/01:00am 23.4 23.7 13.4 53 5.8 WNW 4 6 2 3 1014.2 - 0.0
02/12:30am 23.9 24.5 11.9 47 6.8 CALM 0 0 0 0 1014.4 - 0.0
02/12:00am 23.9 23.2 11.5 45 7.0 NW 6 7 3 4 1014.5 - 0.0
 
Date/Time
CST
Temp
°C
App
Temp
°C
Dew
Point
Rel
Hum
%
Delta-T
°C
Wind Press
QNH
hPa
Press
MSL
hPa
Rain
since 9 am
mm
Dir
 
Spd
km/h
Gust
km/h
Spd
kts
Gust
kts
01/11:30pm 24.3 23.7 11.8 45 7.1 NNW 6 6 3 3 1014.6 - 0.0
01/11:00pm 24.4 22.8 10.3 41 7.8 NNW 9 9 5 5 1014.5 - 0.0
01/10:30pm 24.8 23.0 9.4 37 8.4 NNW 9 13 5 7 1014.5 1014.3 0.0
01/10:00pm 24.1 23.9 13.0 50 6.4 E 6 7 3 4 1014.5 - 0.0
01/09:30pm 24.2 25.4 15.0 56 5.5 SE 2 6 1 3 1014.4 - 0.0
01/09:00pm 24.3 24.3 12.5 47 6.8 SE 4 6 2 3 1014.2 - 0.0
01/08:30pm 24.9 25.9 13.2 48 6.8 CALM 0 6 0 3 1013.8 - 0.0
01/08:00pm 25.1 25.5 11.1 41 7.9 CALM 0 0 0 0 1013.4 - 0.0
01/07:30pm 26.0 25.9 9.5 35 9.1 CALM 0 0 0 0 1013.0 1012.8 0.0
01/07:00pm 27.9 28.0 10.1 33 10.0 CALM 0 0 0 0 1012.7 - 0.0
01/06:30pm 30.4 28.9 9.1 26 11.9 E 7 9 4 5 1012.4 - 0.0
01/06:00pm 32.0 29.1 4.8 18 14.3 E 9 13 5 7 1012.1 - 0.0
01/05:30pm 33.3 29.0 0.9 12 16.1 E 13 20 7 11 1011.8 - 0.0
01/05:00pm 33.9 29.5 0.3 12 16.6 E 13 17 7 9 1011.8 - 0.0
01/04:30pm 33.7 29.3 0.6 12 16.4 ENE 13 20 7 11 1011.9 1011.7 0.0
01/04:00pm 33.9 28.5 -1.1 10 16.9 E 17 24 9 13 1012.0 - 0.0
01/03:30pm 33.8 28.8 -1.4 10 16.9 ESE 15 20 8 11 1012.3 - 0.0
01/03:00pm 33.5 29.4 -0.4 11 16.5 E 11 15 6 8 1012.6 - 0.0
01/02:30pm 33.9 28.8 -1.7 10 17.0 E 15 19 8 10 1013.0 - 0.0
01/02:00pm 33.7 27.8 -2.3 10 17.0 E 19 26 10 14 1013.5 - 0.0
01/01:30pm 33.4 27.4 -2.7 10 16.9 E 19 24 10 13 1013.9 1013.7 0.0
01/01:00pm 32.8 27.8 -1.5 11 16.3 ESE 15 26 8 14 1014.7 - 0.0
01/12:30pm 32.4 25.6 -2.2 10 16.2 E 24 32 13 17 1015.3 - 0.0
01/12:00pm 31.6 25.5 -2.0 11 15.7 E 20 30 11 16 1015.5 - 0.0
01/11:30am 30.7 24.2 -2.2 12 15.2 E 22 32 12 17 1016.1 - 0.0
01/11:00am 30.3 23.0 -2.8 11 15.1 E 26 32 14 17 1016.3 - 0.0
01/10:30am 29.3 25.2 2.5 18 13.3 SE 13 19 7 10 1016.3 1016.1 0.0
01/10:00am 27.4 23.3 4.6 23 11.6 S 15 19 8 10 1016.3 - 0.0
01/09:30am 26.2 23.6 7.9 31 9.8 SSE 11 15 6 8 1016.0 - 0.0
01/09:00am 24.1 22.2 9.1 38 8.1 SSE 9 11 5 6 1015.7 - 0.0
01/08:30am 20.3 21.5 13.7 66 3.8 CALM 0 0 0 0 1015.5 - 0.0
01/08:00am 18.4 18.9 11.5 64 3.8 CALM 0 0 0 0 1015.4 - 0.0
01/07:30am 15.5 14.9 11.6 77 2.1 SSE 6 7 3 4 1015.2 1015.0 0.0
01/07:00am 15.1 15.2 11.6 79 1.9 SSE 2 6 1 3 1015.0 - 0.0
01/06:30am 15.2 15.7 11.7 79 1.9 CALM 0 0 0 0 1014.8 - 0.0
01/06:00am 15.5 16.2 12.2 81 1.8 CALM 0 0 0 0 1014.5 - 0.0
01/05:30am 16.1 16.7 11.9 76 2.3 CALM 0 0 0 0 1014.3 - 0.0
01/05:00am 18.0 18.4 11.2 64 3.7 CALM 0 0 0 0 1014.2 - 0.0
01/04:30am 17.8 18.4 12.0 69 3.2 CALM 0 0 0 0 1014.1 1013.9 0.0
01/04:00am 17.3 17.8 11.6 69 3.1 CALM 0 0 0 0 1014.1 - 0.0
01/03:30am 18.5 18.2 12.8 69 3.2 SSE 6 7 3 4 1014.0 - 0.0
01/03:00am 17.2 17.5 14.4 83 1.6 SE 6 6 3 3 1014.0 - 0.0
01/02:30am 17.2 17.5 13.3 78 2.2 SE 4 7 2 4 1014.0 - 0.0
01/02:00am 17.4 18.3 12.9 75 2.5 CALM 0 0 0 0 1014.1 - 0.0
01/01:30am 17.8 19.0 13.9 78 2.2 CALM 0 0 0 0 1014.2 1014.0 0.0
01/01:00am 18.9 19.9 13.1 69 3.3 CALM 0 0 0 0 1014.3 - 0.0
01/12:30am 19.3 19.5 14.3 73 2.9 SE 6 7 3 4 1014.4 - 0.0
01/12:00am 20.8 21.1 14.5 67 3.7 SSE 6 7 3 4 1014.3 - 0.0
 
Date/Time
CST
Temp
°C
App
Temp
°C
Dew
Point
Rel
Hum
%
Delta-T
°C
Wind Press
QNH
hPa
Press
MSL
hPa
Rain
since 9 am
mm
Dir
 
Spd
km/h
Gust
km/h
Spd
kts
Gust
kts
31/11:30pm 19.5 20.7 13.9 70 3.2 CALM 0 0 0 0 1014.3 - 0.0
31/11:00pm 19.1 20.1 13.1 68 3.4 CALM 0 0 0 0 1014.4 - 0.0
31/10:30pm 19.8 20.5 12.1 61 4.3 CALM 0 0 0 0 1014.4 1014.3 0.0
31/10:07pm 20.0 20.4 11.3 57 4.8 CALM 0 0 0 0 1014.3 - 0.0
31/10:00pm 20.1 20.3 10.5 54 5.2 CALM 0 0 0 0 1014.3 - 0.0
31/09:53pm 20.3 21.0 12.1 59 4.6 CALM 0 0 0 0 1014.2 - 0.0
31/09:30pm 20.4 21.3 13.0 62 4.2 CALM 0 0 0 0 1014.2 - 0.0
31/09:00pm 20.7 21.7 13.2 62 4.3 CALM 0 0 0 0 1014.0 - 0.0
31/08:30pm 21.7 22.2 14.0 61 4.5 SSE 4 6 2 3 1013.6 - 0.0
31/08:00pm 22.9 23.0 13.8 56 5.3 SSE 6 7 3 4 1013.2 - 0.0
31/07:44pm 22.8 22.0 11.6 49 6.3 SSE 7 7 4 4 1013.0 - 0.0
31/07:32pm 23.8 24.1 12.2 48 6.6 ESE 2 7 1 4 1012.9 - 0.0
31/07:30pm 23.7 24.9 13.8 53 5.8 CALM 0 0 0 0 1012.8 1012.6 0.0
31/07:00pm 26.8 27.1 12.3 40 8.4 ESE 2 6 1 3 1012.7 - 0.0
31/06:30pm 30.4 30.4 9.7 27 11.7 CALM 0 0 0 0 1012.6 - 0.0
31/06:00pm 32.6 31.0 2.4 14 15.3 CALM 0 0 0 0 1012.5 - 0.0
31/05:30pm 32.6 29.4 0.8 13 15.7 SSE 7 11 4 6 1012.4 - 0.0
31/05:00pm 32.9 29.0 1.1 13 15.8 SE 11 15 6 8 1012.4 - 0.0
31/04:30pm 33.4 29.6 -0.7 11 16.5 SSE 9 17 5 9 1012.4 1012.2 0.0
31/04:00pm 33.2 28.5 -1.7 10 16.6 SE 13 20 7 11 1012.6 - 0.0
31/03:30pm 33.7 28.5 -2.8 9 17.1 ESE 15 24 8 13 1012.9 - 0.0
31/03:00pm 33.2 27.2 -2.8 10 16.8 SE 19 22 10 12 1013.4 - 0.0
31/02:30pm 33.3 28.6 -2.0 10 16.7 E 13 22 7 12 1013.9 - 0.0
31/02:00pm 32.7 27.1 -3.3 9 16.6 E 17 24 9 13 1014.6 - 0.0
31/01:30pm 32.7 27.5 -2.8 10 16.5 ESE 15 24 8 13 1015.2 1015.1 0.0
31/01:00pm 31.8 26.1 -3.5 10 16.1 ESE 17 28 9 15 1015.8 - 0.0
31/12:30pm 31.2 25.0 -3.3 10 15.7 ESE 20 22 11 12 1016.3 - 0.0
31/12:00pm 30.7 24.7 -3.2 11 15.4 ESE 19 26 10 14 1016.7 - 0.0
31/11:30am 30.3 24.4 -2.3 12 15.0 E 19 24 10 13 1017.1 - 0.0
31/11:00am 29.5 23.2 -3.7 11 14.8 ESE 20 30 11 16 1017.5 - 0.0
31/10:30am 29.1 25.2 0.9 16 13.6 ESE 11 19 6 10 1017.6 1017.5 0.0
31/10:00am 26.6 24.0 6.0 27 10.7 SSE 9 13 5 7 1017.7 - 0.0
31/09:30am 25.6 23.2 5.1 26 10.4 SE 7 9 4 5 1017.6 - 0.0
31/09:00am 24.1 21.4 5.5 30 9.4 SE 9 13 5 7 1017.2 - 0.0
31/08:30am 19.4 20.3 13.0 66 3.6 CALM 0 0 0 0 1016.9 - 0.0
31/08:00am 15.8 16.7 12.9 83 1.6 CALM 0 0 0 0 1016.5 - 0.0
31/07:30am 15.2 16.0 12.5 84 1.5 CALM 0 0 0 0 1016.2 1016.1 0.0
31/07:00am 14.8 15.5 12.2 84 1.4 CALM 0 0 0 0 1015.7 - 0.0
31/06:30am 15.0 15.9 12.8 87 1.2 CALM 0 0 0 0 1015.4 - 0.0
31/06:00am 15.0 15.8 12.6 85 1.3 CALM 0 0 0 0 1015.2 - 0.0
31/05:30am 15.1 15.9 12.5 84 1.4 CALM 0 0 0 0 1015.1 - 0.0
31/05:00am 15.3 16.2 12.8 85 1.4 CALM 0 0 0 0 1015.0 - 0.0
31/04:30am 15.4 16.2 12.5 83 1.6 CALM 0 0 0 0 1015.1 1015.0 0.0
31/04:00am 16.5 17.3 12.7 78 2.1 CALM 0 0 0 0 1015.1 - 0.0
31/03:30am 16.8 17.6 12.5 76 2.4 CALM 0 0 0 0 1015.3 - 0.0
31/03:00am 16.8 17.2 12.5 76 2.4 SSW 2 7 1 4 1015.4 - 0.0
31/02:30am 17.0 17.7 12.1 73 2.7 CALM 0 6 0 3 1015.5 - 0.0
31/02:00am 17.4 17.5 12.7 74 2.6 SSW 4 7 2 4 1015.6 - 0.0
31/01:30am 17.8 18.1 14.5 81 1.9 SSW 6 9 3 5 1015.7 1015.6 0.0
31/01:00am 18.4 19.4 13.1 71 3.0 CALM 0 0 0 0 1015.7 - 0.0
31/12:30am 18.3 19.3 13.2 72 2.9 CALM 0 0 0 0 1015.6 - 0.0
31/12:28am 18.3 19.4 13.4 73 2.8 CALM 0 6 0 3 1015.6 - 0.0
31/12:10am 19.7 19.4 12.8 64 3.9 SSW 6 7 3 4 1015.6 - 0.0
31/12:00am 19.6 18.8 11.8 60 4.3 SSW 7 7 4 4 1015.5 - 0.0
 
Date/Time
CST
Temp
°C
App
Temp
°C
Dew
Point
Rel
Hum
%
Delta-T
°C
Wind Press
QNH
hPa
Press
MSL
hPa
Rain
since 9 am
mm
Dir
 
Spd
km/h
Gust
km/h
Spd
kts
Gust
kts
30/11:30pm 18.8 19.8 13.1 69 3.2 CALM 0 0 0 0 1015.6 - 0.0
30/11:00pm 20.3 20.8 12.7 61 4.3 SSW 2 7 1 4 1015.7 - 0.0
30/10:30pm 19.4 20.2 12.6 64 3.8 CALM 0 0 0 0 1015.7 1015.6 0.0
30/10:00pm 20.8 21.8 13.3 62 4.3 CALM 0 0 0 0 1015.7 - 0.0
30/09:30pm 20.6 21.5 14.0 66 3.8 SSE 2 6 1 3 1015.7 - 0.0
30/09:00pm 21.6 21.0 11.6 53 5.6 SSW 6 7 3 4 1015.4 - 0.0
30/08:30pm 22.1 21.8 12.8 55 5.3 ESE 6 7 3 4 1015.2 - 0.0
30/08:00pm 23.1 22.9 13.0 53 5.8 ESE 6 7 3 4 1014.8 - 0.0
30/07:30pm 23.9 23.8 13.2 51 6.2 ESE 6 7 3 4 1014.6 1014.5 0.0
30/07:00pm 26.6 25.7 11.5 39 8.6 ESE 7 9 4 5 1014.3 - 0.0
30/06:30pm 29.6 27.1 6.5 23 12.3 E 9 11 5 6 1014.0 - 0.0
30/06:00pm 31.5 27.9 4.8 18 14.0 E 13 17 7 9 1013.7 - 0.0
30/05:30pm 32.1 28.8 4.3 17 14.5 SSE 11 15 6 8 1013.5 - 0.0
30/05:00pm 32.4 28.1 3.5 16 14.9 SE 15 19 8 10 1013.3 - 0.0
30/04:30pm 32.5 27.6 2.2 14 15.3 SE 17 20 9 11 1013.3 1013.2 0.0
30/04:00pm 32.5 28.4 2.2 14 15.3 E 13 22 7 12 1013.3 - 0.0
30/03:30pm 32.4 28.4 2.7 15 15.1 NE 13 20 7 11 1013.4 - 0.0
30/03:00pm 32.6 27.8 2.8 15 15.2 ENE 17 22 9 12 1013.8 - 0.0
30/02:30pm 32.5 27.9 3.7 16 14.9 NE 17 20 9 11 1014.2 - 0.0
30/02:00pm 32.4 26.4 3.1 15 15.0 ENE 24 30 13 16 1014.8 - 0.0
30/01:30pm 31.7 27.1 3.7 17 14.4 ESE 17 26 9 14 1015.4 1015.3 0.0
30/01:00pm 32.2 26.9 3.0 15 14.9 E 20 33 11 18 1016.1 - 0.0
30/12:30pm 31.1 25.5 3.5 17 14.1 E 22 30 12 16 1016.7 - 0.0
30/12:00pm 30.6 26.1 4.2 18 13.6 ENE 17 24 9 13 1017.2 - 0.0
30/11:30am 30.7 24.8 4.1 18 13.7 E 24 32 13 17 1017.7 - 0.0
30/11:00am 29.7 24.3 2.6 17 13.5 ESE 20 24 11 13 1018.0 - 0.0
30/10:30am 28.8 23.5 2.1 18 13.1 SE 19 24 10 13 1018.3 1018.2 -
30/10:00am 27.4 23.5 3.6 21 11.9 S 13 17 7 9 1018.3 - -

Other Formats:

Comma delimited format used in spreadsheet applications
http://www.bom.gov.au/fwo/IDD60801/IDD60801.94216.axf

JavaScript Object Notation format (JSON) in row-major order
http://www.bom.gov.au/fwo/IDD60801/IDD60801.94216.json